createdAt,value
2017-02-03T00:00:11.945Z,999.78
2017-02-03T00:01:22.605Z,999.78
2017-02-03T00:02:33.493Z,999.73
2017-02-03T00:03:42.984Z,999.76
2017-02-03T00:04:53.610Z,999.74
2017-02-03T00:06:04.287Z,999.72
2017-02-03T00:07:14.941Z,999.75
2017-02-03T00:08:25.442Z,999.74
2017-02-03T00:09:35.690Z,999.75
2017-02-03T00:10:46.349Z,999.71
2017-02-03T00:11:56.988Z,999.68
2017-02-03T00:13:07.623Z,999.65
2017-02-03T00:14:18.146Z,999.66
2017-02-03T00:15:28.399Z,999.66
2017-02-03T00:16:38.646Z,999.64
2017-02-03T00:17:49.303Z,999.65
2017-02-03T00:18:58.775Z,999.69
2017-02-03T00:20:09.297Z,999.65
2017-02-03T00:21:19.567Z,999.62
2017-02-03T00:22:29.825Z,999.61
2017-02-03T00:23:40.498Z,999.6
2017-02-03T00:24:49.963Z,999.59
2017-02-03T00:26:00.517Z,999.61
2017-02-03T00:27:10.765Z,999.56
2017-02-03T00:28:20.233Z,999.59
2017-02-03T00:29:30.503Z,999.61
2017-02-03T00:30:41.139Z,999.67
2017-02-03T00:31:51.574Z,999.62
2017-02-03T00:33:01.437Z,999.59
2017-02-03T00:34:12.084Z,999.64
2017-02-03T00:35:21.945Z,999.62
2017-02-03T00:36:32.581Z,999.61
2017-02-03T00:37:42.680Z,999.55
2017-02-03T00:38:53.313Z,999.54
2017-02-03T00:40:03.560Z,999.61
2017-02-03T00:41:13.035Z,999.56
2017-02-03T00:42:22.521Z,999.58
2017-02-03T00:43:33.611Z,999.65
2017-02-03T00:44:44.254Z,999.62
2017-02-03T00:45:54.935Z,999.64
2017-02-03T00:47:05.692Z,999.69
2017-02-03T00:48:15.652Z,999.7
2017-02-03T00:49:26.553Z,999.67
2017-02-03T00:50:36.422Z,999.71
2017-02-03T00:51:47.090Z,999.74
2017-02-03T00:52:57.718Z,999.72
2017-02-03T00:54:07.965Z,999.76
2017-02-03T00:55:18.071Z,999.79
2017-02-03T00:56:28.716Z,999.75
2017-02-03T00:57:38.587Z,999.73
2017-02-03T00:58:49.210Z,999.74
2017-02-03T00:59:59.868Z,999.7
2017-02-03T01:01:10.408Z,999.74
2017-02-03T01:02:20.644Z,999.72
2017-02-03T01:03:31.271Z,999.75
2017-02-03T01:04:41.535Z,999.8
2017-02-03T01:05:51.464Z,999.72
2017-02-03T01:07:02.400Z,999.75
2017-02-03T01:08:12.640Z,999.73
2017-02-03T01:09:23.277Z,999.73
2017-02-03T01:10:33.520Z,999.74
2017-02-03T01:11:44.159Z,999.76
2017-02-03T01:12:54.286Z,999.77
2017-02-03T01:14:04.172Z,999.77
2017-02-03T01:15:14.431Z,999.79
2017-02-03T01:16:24.688Z,999.81
2017-02-03T01:17:35.330Z,999.85
2017-02-03T01:18:45.887Z,999.83
2017-02-03T01:19:56.145Z,999.82
2017-02-03T01:21:05.245Z,999.79
2017-02-03T01:22:15.516Z,999.85
2017-02-03T01:23:25.759Z,999.8
2017-02-03T01:24:35.873Z,999.83
2017-02-03T01:25:46.123Z,999.87
2017-02-03T01:26:56.362Z,999.85
2017-02-03T01:28:06.662Z,999.88
2017-02-03T01:29:16.915Z,999.86
2017-02-03T01:30:27.419Z,999.79
2017-02-03T01:31:38.050Z,999.78
2017-02-03T01:32:47.912Z,999.85
2017-02-03T01:33:58.163Z,999.89
2017-02-03T01:35:08.401Z,999.92
2017-02-03T01:36:19.275Z,999.9
2017-02-03T01:37:29.931Z,999.89
2017-02-03T01:38:39.793Z,999.91
2017-02-03T01:39:50.096Z,999.89
2017-02-03T01:40:59.977Z,999.91
2017-02-03T01:42:10.151Z,999.87
2017-02-03T01:43:20.458Z,999.89
2017-02-03T01:44:30.322Z,999.87
2017-02-03T01:45:40.966Z,999.86
2017-02-03T01:46:51.267Z,999.88
2017-02-03T01:48:01.811Z,999.83
2017-02-03T01:49:11.707Z,999.86
2017-02-03T01:50:21.984Z,999.84
2017-02-03T01:51:32.238Z,999.88
2017-02-03T01:52:42.892Z,999.88
2017-02-03T01:53:53.392Z,999.88
2017-02-03T01:55:04.052Z,999.88
2017-02-03T01:56:14.307Z,999.87
2017-02-03T01:57:24.965Z,999.88
2017-02-03T01:58:35.281Z,999.93
2017-02-03T01:59:45.705Z,999.9
2017-02-03T02:00:56.368Z,999.87
2017-02-03T02:02:07.056Z,999.87
2017-02-03T02:03:16.902Z,999.84
2017-02-03T02:04:27.138Z,999.91
2017-02-03T02:05:37.665Z,999.89
2017-02-03T02:06:47.913Z,999.89
2017-02-03T02:07:58.554Z,999.89
2017-02-03T02:09:09.198Z,999.87
2017-02-03T02:10:19.066Z,999.88
2017-02-03T02:11:29.251Z,999.88
2017-02-03T02:12:39.133Z,999.88
2017-02-03T02:13:49.790Z,999.88
2017-02-03T02:15:00.039Z,999.86
2017-02-03T02:16:10.286Z,999.87
2017-02-03T02:17:21.207Z,999.83
2017-02-03T02:18:31.836Z,999.85
2017-02-03T02:19:42.086Z,999.86
2017-02-03T02:20:51.945Z,999.84
2017-02-03T02:22:02.189Z,999.89
2017-02-03T02:23:13.097Z,999.89
2017-02-03T02:24:23.735Z,999.87
2017-02-03T02:25:33.979Z,999.89
2017-02-03T02:26:44.611Z,999.91
2017-02-03T02:27:54.875Z,999.89
2017-02-03T02:29:05.805Z,999.92
2017-02-03T02:30:15.687Z,999.87
2017-02-03T02:31:25.933Z,999.87
2017-02-03T02:32:35.793Z,999.93
2017-02-03T02:33:46.428Z,999.94
2017-02-03T02:34:57.426Z,999.94
2017-02-03T02:36:07.318Z,999.94
2017-02-03T02:37:17.186Z,999.93
2017-02-03T02:38:27.824Z,999.91
2017-02-03T02:39:38.524Z,999.89
2017-02-03T02:40:49.074Z,999.83
2017-02-03T02:41:59.704Z,999.83
2017-02-03T02:43:09.969Z,999.85
2017-02-03T02:44:20.224Z,999.83
2017-02-03T02:45:30.464Z,999.75
2017-02-03T02:46:41.343Z,999.78
2017-02-03T02:47:52.037Z,999.74
2017-02-03T02:49:02.679Z,999.71
2017-02-03T02:50:12.950Z,999.69
2017-02-03T02:51:23.194Z,999.68
2017-02-03T02:52:33.686Z,999.66
2017-02-03T02:53:43.154Z,999.67
2017-02-03T02:54:53.034Z,999.64
2017-02-03T02:56:03.305Z,999.64
2017-02-03T02:57:13.560Z,999.63
2017-02-03T02:58:24.110Z,999.64
2017-02-03T02:59:34.364Z,999.64
2017-02-03T03:00:45.043Z,999.61
2017-02-03T03:01:54.930Z,999.62
2017-02-03T03:03:04.812Z,999.63
2017-02-03T03:04:15.727Z,999.66
2017-02-03T03:05:25.989Z,999.6
2017-02-03T03:06:36.654Z,999.63
2017-02-03T03:07:46.897Z,999.62
2017-02-03T03:08:57.139Z,999.65
2017-02-03T03:10:08.032Z,999.64
2017-02-03T03:11:18.280Z,999.69
2017-02-03T03:12:28.971Z,999.63
2017-02-03T03:13:39.221Z,999.64
2017-02-03T03:14:49.864Z,999.6
2017-02-03T03:16:00.382Z,999.61
2017-02-03T03:17:10.638Z,999.59
2017-02-03T03:18:20.894Z,999.56
2017-02-03T03:19:31.530Z,999.52
2017-02-03T03:20:41.765Z,999.52
2017-02-03T03:21:52.307Z,999.5
2017-02-03T03:23:02.557Z,999.5
2017-02-03T03:24:12.034Z,999.5
2017-02-03T03:25:22.283Z,999.49
2017-02-03T03:26:32.997Z,999.48
2017-02-03T03:27:43.541Z,999.43
2017-02-03T03:28:53.781Z,999.46
2017-02-03T03:30:03.643Z,999.44
2017-02-03T03:31:13.901Z,999.44
2017-02-03T03:32:24.526Z,999.46
2017-02-03T03:33:35.456Z,999.42
2017-02-03T03:34:45.729Z,999.45
2017-02-03T03:35:55.995Z,999.44
2017-02-03T03:37:05.879Z,999.43
2017-02-03T03:38:15.730Z,999.44
2017-02-03T03:39:26.629Z,999.47
2017-02-03T03:40:36.876Z,999.48
2017-02-03T03:41:46.737Z,999.49
2017-02-03T03:42:57.370Z,999.48
2017-02-03T03:44:08.027Z,999.48
2017-02-03T03:45:18.561Z,999.43
2017-02-03T03:46:29.220Z,999.43
2017-02-03T03:47:39.066Z,999.38
2017-02-03T03:48:48.939Z,999.39
2017-02-03T03:49:59.182Z,999.38
2017-02-03T03:51:09.680Z,999.38
2017-02-03T03:52:20.316Z,999.32
2017-02-03T03:53:30.962Z,999.3
2017-02-03T03:54:40.479Z,999.34
2017-02-03T03:55:51.119Z,999.3
2017-02-03T03:57:02.039Z,999.31
2017-02-03T03:58:12.671Z,999.3
2017-02-03T03:59:23.373Z,999.3
2017-02-03T04:00:33.631Z,999.29
2017-02-03T04:01:44.270Z,999.26
2017-02-03T04:02:55.118Z,999.25
2017-02-03T04:04:05.357Z,999.23
2017-02-03T04:05:15.894Z,999.2
2017-02-03T04:06:26.525Z,999.25
2017-02-03T04:07:37.147Z,999.23
2017-02-03T04:08:46.473Z,999.22
2017-02-03T04:09:57.150Z,999.21
2017-02-03T04:11:07.392Z,999.29
2017-02-03T04:12:17.255Z,999.29
2017-02-03T04:13:27.912Z,999.3
2017-02-03T04:14:38.441Z,999.26
2017-02-03T04:15:48.683Z,999.27
2017-02-03T04:16:58.939Z,999.27
2017-02-03T04:18:09.183Z,999.26
2017-02-03T04:19:19.429Z,999.28
2017-02-03T04:20:29.970Z,999.27
2017-02-03T04:21:40.607Z,999.26
2017-02-03T04:22:50.848Z,999.28
2017-02-03T04:24:01.502Z,999.27
2017-02-03T04:25:11.776Z,999.27
2017-02-03T04:26:22.266Z,999.26
2017-02-03T04:27:32.924Z,999.23
2017-02-03T04:28:43.555Z,999.21
2017-02-03T04:29:53.798Z,999.18
2017-02-03T04:31:04.049Z,999.18
2017-02-03T04:32:14.837Z,999.15
2017-02-03T04:33:25.107Z,999.19
2017-02-03T04:34:35.727Z,999.25
2017-02-03T04:35:45.994Z,999.24
2017-02-03T04:36:56.670Z,999.25
2017-02-03T04:38:07.170Z,999.27
2017-02-03T04:39:17.427Z,999.26
2017-02-03T04:40:28.084Z,999.28
2017-02-03T04:41:38.315Z,999.24
2017-02-03T04:42:48.568Z,999.27
2017-02-03T04:43:59.447Z,999.3
2017-02-03T04:45:10.076Z,999.26
2017-02-03T04:46:20.702Z,999.27
2017-02-03T04:47:30.551Z,999.26
2017-02-03T04:48:40.408Z,999.28
2017-02-03T04:49:49.762Z,999.29
2017-02-03T04:51:00.446Z,999.3
2017-02-03T04:52:10.337Z,999.3
2017-02-03T04:53:20.208Z,999.28
2017-02-03T04:54:30.442Z,999.29
2017-02-03T04:55:40.585Z,999.28
2017-02-03T04:56:51.216Z,999.26
2017-02-03T04:58:01.491Z,999.3
2017-02-03T04:59:12.181Z,999.27
2017-02-03T05:00:22.482Z,999.28
2017-02-03T05:01:32.602Z,999.32
2017-02-03T05:02:43.233Z,999.25
2017-02-03T05:03:53.477Z,999.28
2017-02-03T05:05:03.755Z,999.26
2017-02-03T05:06:14.007Z,999.24
2017-02-03T05:07:25.251Z,999.22
2017-02-03T05:08:35.205Z,999.18
2017-02-03T05:09:45.082Z,999.18
2017-02-03T05:10:55.748Z,999.21
2017-02-03T05:12:06.000Z,999.25
2017-02-03T05:13:15.382Z,999.22
2017-02-03T05:14:24.918Z,999.19
2017-02-03T05:15:35.159Z,999.15
2017-02-03T05:16:45.423Z,999.12
2017-02-03T05:17:56.082Z,999.19
2017-02-03T05:19:07.016Z,999.21
2017-02-03T05:20:16.906Z,999.18
2017-02-03T05:21:26.790Z,999.19
2017-02-03T05:22:37.442Z,999.22
2017-02-03T05:23:48.141Z,999.18
2017-02-03T05:24:59.022Z,999.19
2017-02-03T05:26:09.291Z,999.16
2017-02-03T05:27:18.371Z,999.16
2017-02-03T05:28:28.660Z,999.17
2017-02-03T05:29:38.899Z,999.1
2017-02-03T05:30:49.286Z,999.07
2017-02-03T05:31:59.931Z,999.09
2017-02-03T05:33:10.179Z,999.05
2017-02-03T05:34:20.424Z,999.08
2017-02-03T05:35:30.692Z,999.1
2017-02-03T05:36:41.578Z,999.13
2017-02-03T05:37:51.822Z,999.11
2017-02-03T05:39:02.066Z,999.14
2017-02-03T05:40:11.923Z,999.14
2017-02-03T05:41:22.605Z,999.16
2017-02-03T05:42:33.507Z,999.15
2017-02-03T05:43:43.775Z,999.14
2017-02-03T05:44:54.048Z,999.12
2017-02-03T05:46:04.694Z,999.1
2017-02-03T05:47:14.945Z,999.08
2017-02-03T05:48:25.860Z,999.06
2017-02-03T05:49:35.341Z,999.07
2017-02-03T05:50:45.605Z,999.08
2017-02-03T05:51:55.867Z,999.09
2017-02-03T05:53:06.154Z,999.09
2017-02-03T05:54:17.071Z,999.04
2017-02-03T05:55:27.307Z,999.05
2017-02-03T05:56:37.543Z,999.09
2017-02-03T05:57:48.188Z,999.09
2017-02-03T05:58:58.052Z,999.09
2017-02-03T06:00:08.548Z,999.12
2017-02-03T06:01:18.416Z,999.1
2017-02-03T06:02:29.061Z,999.13
2017-02-03T06:03:39.691Z,999.1
2017-02-03T06:04:49.938Z,999.09
2017-02-03T06:06:00.878Z,999.07
2017-02-03T06:07:11.534Z,999.07
2017-02-03T06:08:21.437Z,999.09
2017-02-03T06:09:31.740Z,999.08
2017-02-03T06:10:41.990Z,999.12
2017-02-03T06:11:52.584Z,999.11
2017-02-03T06:13:03.215Z,999.12
2017-02-03T06:14:13.452Z,999.12
2017-02-03T06:15:23.759Z,999.14
2017-02-03T06:16:33.232Z,999.16
2017-02-03T06:17:44.196Z,999.14
2017-02-03T06:18:54.454Z,999.16
2017-02-03T06:20:05.167Z,999.21
2017-02-03T06:21:15.795Z,999.25
2017-02-03T06:22:26.327Z,999.28
2017-02-03T06:23:36.856Z,999.31
2017-02-03T06:24:46.709Z,999.36
2017-02-03T06:25:56.562Z,999.36
2017-02-03T06:27:07.197Z,999.34
2017-02-03T06:28:18.164Z,999.39
2017-02-03T06:29:29.062Z,999.37
2017-02-03T06:30:39.735Z,999.48
2017-02-03T06:31:49.975Z,999.45
2017-02-03T06:32:59.845Z,999.41
2017-02-03T06:34:10.518Z,999.44
2017-02-03T06:35:20.284Z,999.42
2017-02-03T06:36:30.982Z,999.4
2017-02-03T06:37:41.657Z,999.44
2017-02-03T06:38:52.313Z,999.47
2017-02-03T06:40:02.606Z,999.49
2017-02-03T06:41:12.735Z,999.46
2017-02-03T06:42:22.991Z,999.46
2017-02-03T06:43:33.654Z,999.46
2017-02-03T06:44:44.282Z,999.51
2017-02-03T06:45:54.580Z,999.53
2017-02-03T06:47:05.098Z,999.56
2017-02-03T06:48:15.373Z,999.62
2017-02-03T06:49:25.246Z,999.58
2017-02-03T06:50:35.125Z,999.6
2017-02-03T06:51:46.135Z,999.62
2017-02-03T06:52:56.632Z,999.61
2017-02-03T06:54:06.876Z,999.61
2017-02-03T06:55:17.536Z,999.64
2017-02-03T06:56:28.353Z,999.64
2017-02-03T06:57:38.616Z,999.6
2017-02-03T06:58:49.510Z,999.63
2017-02-03T07:00:00.178Z,999.63
2017-02-03T07:01:10.427Z,999.61
2017-02-03T07:02:20.691Z,999.56
2017-02-03T07:03:31.322Z,999.61
2017-02-03T07:04:41.818Z,999.64
2017-02-03T07:05:52.458Z,999.62
2017-02-03T07:07:02.379Z,999.67
2017-02-03T07:08:12.250Z,999.71
2017-02-03T07:09:22.511Z,999.69
2017-02-03T07:10:33.019Z,999.71
2017-02-03T07:11:43.711Z,999.77
2017-02-03T07:12:54.355Z,999.74
2017-02-03T07:14:04.657Z,999.71
2017-02-03T07:15:15.250Z,999.7
2017-02-03T07:16:25.229Z,999.75
2017-02-03T07:17:35.861Z,999.74
2017-02-03T07:18:46.114Z,999.79
2017-02-03T07:19:56.751Z,999.73
2017-02-03T07:21:07.059Z,999.77
2017-02-03T07:22:17.176Z,999.74
2017-02-03T07:23:27.840Z,999.77
2017-02-03T07:24:37.707Z,999.75
2017-02-03T07:25:47.573Z,999.74
2017-02-03T07:26:57.813Z,999.79
2017-02-03T07:28:08.704Z,999.81
2017-02-03T07:29:19.295Z,999.8
2017-02-03T07:30:29.587Z,999.82
2017-02-03T07:31:40.215Z,999.85
2017-02-03T07:32:50.871Z,999.85
2017-02-03T07:34:01.796Z,999.89
2017-02-03T07:35:11.752Z,999.9
2017-02-03T07:36:22.395Z,999.91
2017-02-03T07:37:33.071Z,999.94
2017-02-03T07:38:42.935Z,999.93
2017-02-03T07:39:53.428Z,999.97
2017-02-03T07:41:03.747Z,1000.03
2017-02-03T07:42:14.463Z,999.95
2017-02-03T07:43:24.360Z,1000.01
2017-02-03T07:44:35.010Z,1000
2017-02-03T07:45:45.590Z,1000.02
2017-02-03T07:46:56.257Z,1000.05
2017-02-03T07:48:06.525Z,1000.09
2017-02-03T07:49:16.811Z,1000.09
2017-02-03T07:50:27.110Z,1000.08
2017-02-03T07:51:38.035Z,1000.08
2017-02-03T07:52:48.683Z,1000.14
2017-02-03T07:53:58.955Z,1000.15
2017-02-03T07:55:09.260Z,1000.14
2017-02-03T07:56:19.169Z,1000.11
2017-02-03T07:57:29.700Z,1000.15
2017-02-03T07:58:40.391Z,1000.13
2017-02-03T07:59:50.643Z,1000.16
2017-02-03T08:01:01.305Z,1000.15
2017-02-03T08:02:11.556Z,1000.14
2017-02-03T08:03:21.980Z,1000.23
2017-02-03T08:04:32.654Z,1000.16
2017-02-03T08:05:42.901Z,1000.2
2017-02-03T08:06:53.189Z,1000.23
2017-02-03T08:08:03.123Z,1000.19
2017-02-03T08:09:13.662Z,1000.21
2017-02-03T08:10:23.160Z,1000.19
2017-02-03T08:11:32.633Z,1000.17
2017-02-03T08:12:42.887Z,1000.16
2017-02-03T08:13:53.584Z,1000.16
2017-02-03T08:15:04.118Z,1000.14
2017-02-03T08:16:14.390Z,1000.15
2017-02-03T08:17:24.319Z,1000.13
2017-02-03T08:18:34.651Z,1000.13
2017-02-03T08:19:44.550Z,1000.14
2017-02-03T08:20:55.217Z,1000.12
2017-02-03T08:22:05.860Z,1000.14
2017-02-03T08:23:15.744Z,1000.17
2017-02-03T08:24:26.019Z,1000.14
2017-02-03T08:25:36.318Z,1000.17
2017-02-03T08:26:46.819Z,1000.23
2017-02-03T08:27:57.076Z,1000.19
2017-02-03T08:29:07.322Z,1000.25
2017-02-03T08:30:17.257Z,1000.23
2017-02-03T08:31:27.534Z,1000.27
2017-02-03T08:32:38.462Z,1000.26
2017-02-03T08:33:49.170Z,1000.3
2017-02-03T08:34:59.431Z,1000.3
2017-02-03T08:36:09.419Z,1000.34
2017-02-03T08:37:19.321Z,1000.37
2017-02-03T08:38:30.275Z,1000.35
2017-02-03T08:39:40.963Z,1000.37
2017-02-03T08:40:51.221Z,1000.4
2017-02-03T08:42:01.515Z,1000.37
2017-02-03T08:43:11.008Z,1000.33
2017-02-03T08:44:21.121Z,1000.36
2017-02-03T08:45:31.769Z,1000.35
2017-02-03T08:46:42.412Z,1000.37
2017-02-03T08:47:53.062Z,1000.37
2017-02-03T08:49:03.026Z,1000.34
2017-02-03T08:50:13.952Z,1000.4
2017-02-03T08:51:24.242Z,1000.43
2017-02-03T08:52:34.876Z,1000.43
2017-02-03T08:53:45.520Z,1000.43
2017-02-03T08:54:55.807Z,1000.45
2017-02-03T08:56:06.307Z,1000.42
2017-02-03T08:57:16.180Z,1000.41
2017-02-03T08:58:26.842Z,1000.43
2017-02-03T08:59:37.166Z,1000.42
2017-02-03T09:00:47.416Z,1000.43
2017-02-03T09:01:57.934Z,1000.43
2017-02-03T09:03:08.253Z,1000.46
2017-02-03T09:04:18.916Z,1000.49
2017-02-03T09:05:28.387Z,1000.52
2017-02-03T09:06:37.885Z,1000.51
2017-02-03T09:07:48.415Z,1000.52
2017-02-03T09:08:58.372Z,1000.53
2017-02-03T09:10:07.934Z,1000.55
2017-02-03T09:11:18.251Z,1000.52
2017-02-03T09:12:27.738Z,1000.5
2017-02-03T09:13:38.271Z,1000.5
2017-02-03T09:14:48.525Z,1000.53
2017-02-03T09:15:59.180Z,1000.49
2017-02-03T09:17:09.814Z,1000.49
2017-02-03T09:18:20.445Z,1000.52
2017-02-03T09:19:30.430Z,1000.49
2017-02-03T09:20:40.722Z,1000.53
2017-02-03T09:21:51.420Z,1000.51
2017-02-03T09:23:02.066Z,1000.54
2017-02-03T09:24:11.540Z,1000.56
2017-02-03T09:25:22.103Z,1000.56
2017-02-03T09:26:32.344Z,1000.58
2017-02-03T09:27:43.055Z,1000.56
2017-02-03T09:28:52.916Z,1000.58
2017-02-03T09:30:03.198Z,1000.61
2017-02-03T09:31:13.706Z,1000.65
2017-02-03T09:32:23.977Z,1000.64
2017-02-03T09:33:34.649Z,1000.65
2017-02-03T09:34:45.312Z,1000.71
2017-02-03T09:35:55.603Z,1000.68
2017-02-03T09:37:06.119Z,1000.67
2017-02-03T09:38:16.382Z,1000.71
2017-02-03T09:39:27.074Z,1000.7
2017-02-03T09:40:37.730Z,1000.71
2017-02-03T09:41:47.983Z,1000.72
2017-02-03T09:42:58.882Z,1000.7
2017-02-03T09:44:09.223Z,1000.73
2017-02-03T09:45:19.090Z,1000.7
2017-02-03T09:46:29.336Z,1000.72
2017-02-03T09:47:39.234Z,1000.72
2017-02-03T09:48:49.400Z,1000.7
2017-02-03T09:49:59.673Z,1000.69
2017-02-03T09:51:09.917Z,1000.68
2017-02-03T09:52:19.774Z,1000.66
2017-02-03T09:53:30.413Z,1000.66
2017-02-03T09:54:40.928Z,1000.66
2017-02-03T09:55:51.192Z,1000.71
2017-02-03T09:57:01.440Z,1000.71
2017-02-03T09:58:11.319Z,1000.71
2017-02-03T09:59:21.994Z,1000.69
2017-02-03T10:00:32.494Z,1000.72
2017-02-03T10:01:42.769Z,1000.76
2017-02-03T10:02:53.016Z,1000.83
2017-02-03T10:04:03.697Z,1000.85
2017-02-03T10:05:14.332Z,1000.82
2017-02-03T10:06:24.457Z,1000.85
2017-02-03T10:07:34.773Z,1000.89
2017-02-03T10:08:45.027Z,1000.85
2017-02-03T10:09:55.664Z,1000.8
2017-02-03T10:11:06.302Z,1000.74
2017-02-03T10:12:16.891Z,1000.74
2017-02-03T10:13:26.384Z,1000.71
2017-02-03T10:14:36.661Z,1000.76
2017-02-03T10:15:47.332Z,1000.76
2017-02-03T10:16:57.599Z,1000.76
2017-02-03T10:18:08.264Z,1000.75
2017-02-03T10:19:18.915Z,1000.77
2017-02-03T10:20:28.793Z,1000.79
2017-02-03T10:21:39.449Z,1000.78
2017-02-03T10:22:49.710Z,1000.78
2017-02-03T10:23:59.820Z,1000.76
2017-02-03T10:25:10.071Z,1000.79
2017-02-03T10:26:20.385Z,1000.76
2017-02-03T10:27:30.724Z,1000.8
2017-02-03T10:28:41.380Z,1000.8
2017-02-03T10:29:52.290Z,1000.77
2017-02-03T10:31:02.588Z,1000.82
2017-02-03T10:32:13.254Z,1000.79
2017-02-03T10:33:23.133Z,1000.79
2017-02-03T10:34:33.381Z,1000.78
2017-02-03T10:35:43.522Z,1000.77
2017-02-03T10:36:54.174Z,1000.77
2017-02-03T10:38:04.836Z,1000.78
2017-02-03T10:39:15.104Z,1000.77
2017-02-03T10:40:25.425Z,1000.75
2017-02-03T10:41:35.633Z,1000.74
2017-02-03T10:42:45.530Z,1000.74
2017-02-03T10:43:55.852Z,1000.7
2017-02-03T10:45:05.741Z,1000.69
2017-02-03T10:46:16.287Z,1000.69
2017-02-03T10:47:25.958Z,1000.69
2017-02-03T10:48:36.625Z,1000.66
2017-02-03T10:49:47.316Z,1000.67
2017-02-03T10:50:57.993Z,1000.64
2017-02-03T10:52:08.263Z,1000.62
2017-02-03T10:53:18.775Z,1000.65
2017-02-03T10:54:28.659Z,1000.61
2017-02-03T10:55:39.284Z,1000.61
2017-02-03T10:56:49.523Z,1000.59
2017-02-03T10:58:00.166Z,1000.57
2017-02-03T10:59:11.046Z,1000.53
2017-02-03T11:00:21.317Z,1000.54
2017-02-03T11:01:31.561Z,1000.52
2017-02-03T11:02:41.842Z,1000.53
2017-02-03T11:03:51.707Z,1000.53
2017-02-03T11:05:02.237Z,1000.55
2017-02-03T11:06:12.125Z,1000.48
2017-02-03T11:07:22.407Z,1000.5
2017-02-03T11:08:32.662Z,1000.46
2017-02-03T11:09:42.577Z,1000.48
2017-02-03T11:10:53.495Z,1000.46
2017-02-03T11:12:04.138Z,1000.39
2017-02-03T11:13:14.020Z,1000.38
2017-02-03T11:14:23.908Z,1000.36
2017-02-03T11:15:34.218Z,1000.37
2017-02-03T11:16:44.766Z,1000.33
2017-02-03T11:17:55.038Z,1000.3
2017-02-03T11:19:04.122Z,1000.27
2017-02-03T11:20:14.447Z,1000.25
2017-02-03T11:21:24.719Z,1000.26
2017-02-03T11:22:35.616Z,1000.25
2017-02-03T11:23:45.907Z,1000.28
2017-02-03T11:24:55.765Z,1000.22
2017-02-03T11:26:06.412Z,1000.23
2017-02-03T11:27:16.664Z,1000.23
2017-02-03T11:28:27.179Z,1000.21
2017-02-03T11:29:37.429Z,1000.24
2017-02-03T11:30:47.702Z,1000.17
2017-02-03T11:31:58.336Z,1000.21
2017-02-03T11:33:07.489Z,1000.2
2017-02-03T11:34:18.031Z,1000.19
2017-02-03T11:35:27.895Z,1000.2
2017-02-03T11:36:38.175Z,1000.19
2017-02-03T11:37:48.885Z,1000.15
2017-02-03T11:38:59.125Z,1000.16
2017-02-03T11:40:09.622Z,1000.15
2017-02-03T11:41:19.901Z,1000.15
2017-02-03T11:42:30.637Z,1000.14
2017-02-03T11:43:40.185Z,1000.12
2017-02-03T11:44:50.839Z,1000.13
2017-02-03T11:46:01.404Z,1000.15
2017-02-03T11:47:11.310Z,1000.11
2017-02-03T11:48:21.987Z,1000.09
2017-02-03T11:49:32.272Z,1000.06
2017-02-03T11:50:42.513Z,1000.01
2017-02-03T11:51:52.662Z,1000
2017-02-03T11:53:02.983Z,1000.01
2017-02-03T11:54:12.882Z,1000.03
2017-02-03T11:55:23.527Z,999.97
2017-02-03T11:56:33.798Z,1000.03
2017-02-03T11:57:43.940Z,1000.04
2017-02-03T11:58:54.623Z,1000.01
2017-02-03T12:00:04.527Z,1000
2017-02-03T12:01:14.444Z,1000.1
2017-02-03T12:02:24.790Z,1000.1
2017-02-03T12:03:34.908Z,1000.07
2017-02-03T12:04:45.565Z,1000.05
2017-02-03T12:05:55.866Z,1000.02
2017-02-03T12:07:05.750Z,1000
2017-02-03T12:08:16.391Z,1000.02
2017-02-03T12:09:26.908Z,1000.04
2017-02-03T12:10:37.173Z,999.98
2017-02-03T12:11:47.441Z,999.9
2017-02-03T12:12:57.401Z,999.86
2017-02-03T12:14:07.673Z,999.85
2017-02-03T12:15:18.241Z,999.76
2017-02-03T12:16:28.902Z,999.73
2017-02-03T12:17:39.560Z,999.71
2017-02-03T12:18:49.849Z,999.69
2017-02-03T12:20:00.488Z,999.68
2017-02-03T12:21:10.657Z,999.65
2017-02-03T12:22:21.335Z,999.59
2017-02-03T12:23:31.978Z,999.62
2017-02-03T12:24:42.614Z,999.65
2017-02-03T12:25:53.250Z,999.66
2017-02-03T12:27:04.133Z,999.69
2017-02-03T12:28:14.399Z,999.62
2017-02-03T12:29:24.670Z,999.61
2017-02-03T12:30:35.385Z,999.69
2017-02-03T12:31:45.679Z,999.67
2017-02-03T12:32:56.603Z,999.66
2017-02-03T12:34:06.903Z,999.63
2017-02-03T12:35:17.168Z,999.63
2017-02-03T12:36:27.820Z,999.63
2017-02-03T12:37:38.484Z,999.58
2017-02-03T12:38:49.384Z,999.64
2017-02-03T12:39:59.258Z,999.63
2017-02-03T12:41:09.556Z,999.59
2017-02-03T12:42:19.822Z,999.57
2017-02-03T12:43:30.473Z,999.51
2017-02-03T12:44:40.980Z,999.51
2017-02-03T12:45:51.617Z,999.47
2017-02-03T12:47:01.474Z,999.4
2017-02-03T12:48:12.099Z,999.42
2017-02-03T12:49:22.766Z,999.36
2017-02-03T12:50:33.331Z,999.38
2017-02-03T12:51:43.570Z,999.39
2017-02-03T12:52:54.235Z,999.4
2017-02-03T12:54:04.118Z,999.43
2017-02-03T12:55:13.606Z,999.41
2017-02-03T12:56:24.138Z,999.41
2017-02-03T12:57:34.011Z,999.41
2017-02-03T12:58:44.294Z,999.43
2017-02-03T12:59:54.937Z,999.41
2017-02-03T13:01:05.212Z,999.45
2017-02-03T13:02:15.727Z,999.45
2017-02-03T13:03:26.362Z,999.44
2017-02-03T13:04:37.303Z,999.4
2017-02-03T13:05:47.592Z,999.41
2017-02-03T13:06:57.902Z,999.39
2017-02-03T13:08:08.004Z,999.38
2017-02-03T13:09:17.922Z,999.41
2017-02-03T13:10:28.204Z,999.37
2017-02-03T13:11:38.074Z,999.29
2017-02-03T13:12:47.946Z,999.36
2017-02-03T13:13:58.074Z,999.37
2017-02-03T13:15:07.535Z,999.35
2017-02-03T13:16:17.438Z,999.36
2017-02-03T13:17:28.114Z,999.35
2017-02-03T13:18:38.814Z,999.35
2017-02-03T13:19:49.315Z,999.34
2017-02-03T13:20:59.968Z,999.35
2017-02-03T13:22:09.454Z,999.36
2017-02-03T13:23:20.122Z,999.3
2017-02-03T13:24:30.004Z,999.32
2017-02-03T13:25:40.130Z,999.29
2017-02-03T13:26:49.994Z,999.29
2017-02-03T13:27:59.466Z,999.29
2017-02-03T13:29:10.115Z,999.25
2017-02-03T13:30:19.584Z,999.21
2017-02-03T13:31:30.100Z,999.24
2017-02-03T13:32:40.400Z,999.24
2017-02-03T13:33:50.301Z,999.24
2017-02-03T13:35:00.168Z,999.24
2017-02-03T13:36:10.814Z,999.24
2017-02-03T13:37:20.553Z,999.26
2017-02-03T13:38:31.251Z,999.28
2017-02-03T13:39:41.128Z,999.24
2017-02-03T13:40:51.447Z,999.25
2017-02-03T13:42:01.710Z,999.26
2017-02-03T13:43:12.322Z,999.27
2017-02-03T13:44:22.590Z,999.28
2017-02-03T13:45:32.451Z,999.29
2017-02-03T13:46:43.413Z,999.26
2017-02-03T13:47:54.051Z,999.28
2017-02-03T13:49:05.247Z,999.25
2017-02-03T13:50:15.884Z,999.28
2017-02-03T13:51:25.757Z,999.28
2017-02-03T13:52:36.020Z,999.31
2017-02-03T13:53:46.677Z,999.34
2017-02-03T13:54:57.196Z,999.31
2017-02-03T13:56:06.661Z,999.3
2017-02-03T13:57:17.178Z,999.37
2017-02-03T13:58:27.491Z,999.29
2017-02-03T13:59:37.763Z,999.33
2017-02-03T14:00:47.884Z,999.31
2017-02-03T14:01:58.139Z,999.35
2017-02-03T14:03:08.094Z,999.33
2017-02-03T14:04:18.736Z,999.33
2017-02-03T14:05:29.052Z,999.33
2017-02-03T14:06:39.975Z,999.34
2017-02-03T14:07:50.223Z,999.32
2017-02-03T14:09:00.864Z,999.29
2017-02-03T14:10:11.179Z,999.28
2017-02-03T14:11:20.708Z,999.3
2017-02-03T14:12:30.347Z,999.23
2017-02-03T14:13:40.227Z,999.22
2017-02-03T14:14:50.147Z,999.2
2017-02-03T14:16:00.446Z,999.17
2017-02-03T14:17:10.323Z,999.12
2017-02-03T14:18:20.828Z,999.13
2017-02-03T14:19:31.480Z,999.15
2017-02-03T14:20:41.735Z,999.13
2017-02-03T14:21:51.620Z,999.18
2017-02-03T14:23:01.875Z,999.16
2017-02-03T14:24:12.370Z,999.17
2017-02-03T14:25:23.006Z,999.18
2017-02-03T14:26:33.251Z,999.17
2017-02-03T14:27:43.117Z,999.18
2017-02-03T14:28:53.788Z,999.12
2017-02-03T14:30:04.710Z,999.12
2017-02-03T14:31:14.606Z,999.11